sensor_id;sensor_type;location;lat;lon;timestamp;P1;durP1;ratioP1;P2;durP2;ratioP2
7659;SDS011;3872;47.902;8.162;2022-07-17T00:01:40;5.13;;;2.40;;
7659;SDS011;3872;47.902;8.162;2022-07-17T00:04:07;7.60;;;3.03;;
7659;SDS011;3872;47.902;8.162;2022-07-17T00:06:33;4.60;;;2.00;;
7659;SDS011;3872;47.902;8.162;2022-07-17T00:09:01;7.90;;;2.47;;
7659;SDS011;3872;47.902;8.162;2022-07-17T00:11:28;6.33;;;2.10;;
7659;SDS011;3872;47.902;8.162;2022-07-17T00:13:54;7.33;;;2.70;;
7659;SDS011;3872;47.902;8.162;2022-07-17T00:16:21;4.70;;;2.30;;
7659;SDS011;3872;47.902;8.162;2022-07-17T00:18:49;4.97;;;2.30;;
7659;SDS011;3872;47.902;8.162;2022-07-17T00:21:16;5.47;;;2.60;;
7659;SDS011;3872;47.902;8.162;2022-07-17T00:23:42;8.00;;;2.37;;
7659;SDS011;3872;47.902;8.162;2022-07-17T00:26:10;5.50;;;2.47;;
7659;SDS011;3872;47.902;8.162;2022-07-17T00:28:37;6.30;;;2.50;;
7659;SDS011;3872;47.902;8.162;2022-07-17T00:31:04;6.30;;;2.87;;
7659;SDS011;3872;47.902;8.162;2022-07-17T00:33:31;9.67;;;3.43;;
7659;SDS011;3872;47.902;8.162;2022-07-17T00:35:57;7.27;;;3.57;;
7659;SDS011;3872;47.902;8.162;2022-07-17T00:38:24;7.70;;;2.87;;
7659;SDS011;3872;47.902;8.162;2022-07-17T00:40:52;7.27;;;3.07;;
7659;SDS011;3872;47.902;8.162;2022-07-17T00:43:20;9.10;;;4.13;;
7659;SDS011;3872;47.902;8.162;2022-07-17T00:45:53;9.37;;;4.60;;
7659;SDS011;3872;47.902;8.162;2022-07-17T00:48:21;6.67;;;2.73;;
7659;SDS011;3872;47.902;8.162;2022-07-17T00:50:48;6.80;;;3.43;;
7659;SDS011;3872;47.902;8.162;2022-07-17T00:53:15;11.90;;;3.17;;
7659;SDS011;3872;47.902;8.162;2022-07-17T00:55:41;5.60;;;3.10;;
7659;SDS011;3872;47.902;8.162;2022-07-17T00:58:08;8.10;;;4.13;;
7659;SDS011;3872;47.902;8.162;2022-07-17T01:00:37;8.23;;;4.20;;
7659;SDS011;3872;47.902;8.162;2022-07-17T01:03:04;6.53;;;3.70;;
7659;SDS011;3872;47.902;8.162;2022-07-17T01:05:31;6.80;;;2.80;;
7659;SDS011;3872;47.902;8.162;2022-07-17T01:07:57;7.53;;;3.10;;
7659;SDS011;3872;47.902;8.162;2022-07-17T01:10:24;9.17;;;3.67;;
7659;SDS011;3872;47.902;8.162;2022-07-17T01:12:50;8.40;;;2.90;;
7659;SDS011;3872;47.902;8.162;2022-07-17T01:15:17;6.10;;;3.07;;
7659;SDS011;3872;47.902;8.162;2022-07-17T01:17:45;5.73;;;2.40;;
7659;SDS011;3872;47.902;8.162;2022-07-17T01:20:12;8.77;;;4.23;;
7659;SDS011;3872;47.902;8.162;2022-07-17T01:22:41;5.60;;;2.37;;
7659;SDS011;3872;47.902;8.162;2022-07-17T01:25:08;14.07;;;2.87;;
7659;SDS011;3872;47.902;8.162;2022-07-17T01:27:36;5.57;;;3.20;;
7659;SDS011;3872;47.902;8.162;2022-07-17T01:30:03;6.80;;;3.87;;
7659;SDS011;3872;47.902;8.162;2022-07-17T01:32:31;10.87;;;3.37;;
7659;SDS011;3872;47.902;8.162;2022-07-17T01:34:59;6.57;;;3.70;;
7659;SDS011;3872;47.902;8.162;2022-07-17T01:37:26;8.83;;;3.80;;
7659;SDS011;3872;47.902;8.162;2022-07-17T01:39:54;7.30;;;3.33;;
7659;SDS011;3872;47.902;8.162;2022-07-17T01:42:20;7.77;;;4.20;;
7659;SDS011;3872;47.902;8.162;2022-07-17T01:44:48;5.93;;;2.70;;
7659;SDS011;3872;47.902;8.162;2022-07-17T01:47:15;7.27;;;2.70;;
7659;SDS011;3872;47.902;8.162;2022-07-17T01:49:43;5.30;;;2.57;;
7659;SDS011;3872;47.902;8.162;2022-07-17T01:52:10;9.20;;;2.77;;
7659;SDS011;3872;47.902;8.162;2022-07-17T01:54:37;7.43;;;2.73;;
7659;SDS011;3872;47.902;8.162;2022-07-17T01:57:05;5.50;;;2.10;;
7659;SDS011;3872;47.902;8.162;2022-07-17T01:59:31;5.33;;;2.50;;
7659;SDS011;3872;47.902;8.162;2022-07-17T02:01:58;8.17;;;2.30;;
7659;SDS011;3872;47.902;8.162;2022-07-17T02:04:24;6.10;;;2.80;;
7659;SDS011;3872;47.902;8.162;2022-07-17T02:06:52;7.27;;;2.87;;
7659;SDS011;3872;47.902;8.162;2022-07-17T02:09:19;6.60;;;3.43;;
7659;SDS011;3872;47.902;8.162;2022-07-17T02:11:46;4.60;;;2.30;;
7659;SDS011;3872;47.902;8.162;2022-07-17T02:14:14;6.43;;;2.53;;
7659;SDS011;3872;47.902;8.162;2022-07-17T02:16:40;4.40;;;1.83;;
7659;SDS011;3872;47.902;8.162;2022-07-17T02:19:07;6.70;;;2.50;;
7659;SDS011;3872;47.902;8.162;2022-07-17T02:21:33;7.30;;;2.87;;
7659;SDS011;3872;47.902;8.162;2022-07-17T02:24:00;6.00;;;2.63;;
7659;SDS011;3872;47.902;8.162;2022-07-17T02:26:27;12.80;;;2.73;;
7659;SDS011;3872;47.902;8.162;2022-07-17T02:28:53;9.73;;;2.53;;
7659;SDS011;3872;47.902;8.162;2022-07-17T02:31:21;5.20;;;3.00;;
7659;SDS011;3872;47.902;8.162;2022-07-17T02:33:48;5.23;;;3.10;;
7659;SDS011;3872;47.902;8.162;2022-07-17T02:36:14;7.07;;;2.60;;
7659;SDS011;3872;47.902;8.162;2022-07-17T02:38:41;5.00;;;2.70;;
7659;SDS011;3872;47.902;8.162;2022-07-17T02:41:08;5.37;;;2.50;;
7659;SDS011;3872;47.902;8.162;2022-07-17T02:43:34;6.13;;;3.00;;
7659;SDS011;3872;47.902;8.162;2022-07-17T02:46:01;6.10;;;3.00;;
7659;SDS011;3872;47.902;8.162;2022-07-17T02:48:29;5.10;;;2.47;;
7659;SDS011;3872;47.902;8.162;2022-07-17T02:50:56;6.80;;;3.20;;
7659;SDS011;3872;47.902;8.162;2022-07-17T02:53:23;5.43;;;2.63;;
7659;SDS011;3872;47.902;8.162;2022-07-17T02:55:49;7.50;;;3.20;;
7659;SDS011;3872;47.902;8.162;2022-07-17T02:58:16;5.43;;;2.53;;
7659;SDS011;3872;47.902;8.162;2022-07-17T03:00:42;4.73;;;2.33;;
7659;SDS011;3872;47.902;8.162;2022-07-17T03:03:09;4.90;;;2.07;;
7659;SDS011;3872;47.902;8.162;2022-07-17T03:05:37;5.50;;;2.70;;
7659;SDS011;3872;47.902;8.162;2022-07-17T03:08:04;6.03;;;3.17;;
7659;SDS011;3872;47.902;8.162;2022-07-17T03:10:30;4.60;;;2.70;;
7659;SDS011;3872;47.902;8.162;2022-07-17T03:12:57;7.83;;;2.70;;
7659;SDS011;3872;47.902;8.162;2022-07-17T03:15:24;7.43;;;2.90;;
7659;SDS011;3872;47.902;8.162;2022-07-17T03:17:50;6.97;;;3.27;;
7659;SDS011;3872;47.902;8.162;2022-07-17T03:20:17;5.90;;;2.60;;
7659;SDS011;3872;47.902;8.162;2022-07-17T03:22:46;5.23;;;2.60;;
7659;SDS011;3872;47.902;8.162;2022-07-17T03:25:12;4.90;;;2.57;;
7659;SDS011;3872;47.902;8.162;2022-07-17T03:27:39;8.10;;;2.73;;
7659;SDS011;3872;47.902;8.162;2022-07-17T03:30:06;5.30;;;2.90;;
7659;SDS011;3872;47.902;8.162;2022-07-17T03:32:33;6.93;;;3.00;;
7659;SDS011;3872;47.902;8.162;2022-07-17T03:35:00;5.07;;;2.60;;
7659;SDS011;3872;47.902;8.162;2022-07-17T03:37:27;6.87;;;3.30;;
7659;SDS011;3872;47.902;8.162;2022-07-17T03:39:55;7.77;;;2.70;;
7659;SDS011;3872;47.902;8.162;2022-07-17T03:42:22;6.43;;;2.90;;
7659;SDS011;3872;47.902;8.162;2022-07-17T03:44:48;8.20;;;2.93;;
7659;SDS011;3872;47.902;8.162;2022-07-17T03:47:15;10.37;;;3.10;;
7659;SDS011;3872;47.902;8.162;2022-07-17T03:49:41;5.40;;;2.30;;
7659;SDS011;3872;47.902;8.162;2022-07-17T03:52:08;5.20;;;2.90;;
7659;SDS011;3872;47.902;8.162;2022-07-17T03:54:34;7.70;;;2.20;;
7659;SDS011;3872;47.902;8.162;2022-07-17T03:57:02;5.70;;;2.83;;
7659;SDS011;3872;47.902;8.162;2022-07-17T03:59:29;4.97;;;2.37;;
7659;SDS011;3872;47.902;8.162;2022-07-17T04:01:57;6.93;;;2.57;;
7659;SDS011;3872;47.902;8.162;2022-07-17T04:04:23;4.80;;;2.63;;
7659;SDS011;3872;47.902;8.162;2022-07-17T04:06:50;5.80;;;2.50;;
7659;SDS011;3872;47.902;8.162;2022-07-17T04:09:17;4.90;;;2.67;;
7659;SDS011;3872;47.902;8.162;2022-07-17T04:11:44;4.60;;;2.40;;
7659;SDS011;3872;47.902;8.162;2022-07-17T04:14:13;5.30;;;2.87;;
7659;SDS011;3872;47.902;8.162;2022-07-17T04:16:41;5.60;;;2.47;;
7659;SDS011;3872;47.902;8.162;2022-07-17T04:19:07;5.47;;;2.60;;
7659;SDS011;3872;47.902;8.162;2022-07-17T04:21:34;5.97;;;2.80;;
7659;SDS011;3872;47.902;8.162;2022-07-17T04:24:00;5.03;;;2.37;;
7659;SDS011;3872;47.902;8.162;2022-07-17T04:26:27;7.10;;;3.17;;
7659;SDS011;3872;47.902;8.162;2022-07-17T04:28:54;8.33;;;3.00;;
7659;SDS011;3872;47.902;8.162;2022-07-17T04:31:22;5.43;;;2.60;;
7659;SDS011;3872;47.902;8.162;2022-07-17T04:33:49;8.70;;;2.80;;
7659;SDS011;3872;47.902;8.162;2022-07-17T04:36:17;5.30;;;2.80;;
7659;SDS011;3872;47.902;8.162;2022-07-17T04:38:44;5.80;;;3.17;;
7659;SDS011;3872;47.902;8.162;2022-07-17T04:41:11;6.03;;;3.03;;
7659;SDS011;3872;47.902;8.162;2022-07-17T04:43:38;5.53;;;2.83;;
7659;SDS011;3872;47.902;8.162;2022-07-17T04:46:08;5.90;;;2.80;;
7659;SDS011;3872;47.902;8.162;2022-07-17T04:48:50;4.50;;;2.50;;
7659;SDS011;3872;47.902;8.162;2022-07-17T04:51:16;6.00;;;2.60;;
7659;SDS011;3872;47.902;8.162;2022-07-17T04:53:42;5.80;;;2.90;;
7659;SDS011;3872;47.902;8.162;2022-07-17T04:56:23;5.13;;;2.80;;
7659;SDS011;3872;47.902;8.162;2022-07-17T04:58:57;5.80;;;3.30;;
7659;SDS011;3872;47.902;8.162;2022-07-17T05:01:24;5.53;;;2.80;;
7659;SDS011;3872;47.902;8.162;2022-07-17T05:03:52;5.50;;;2.83;;
7659;SDS011;3872;47.902;8.162;2022-07-17T05:06:18;4.73;;;2.40;;
7659;SDS011;3872;47.902;8.162;2022-07-17T05:08:45;6.47;;;2.60;;
7659;SDS011;3872;47.902;8.162;2022-07-17T05:11:11;6.80;;;3.60;;
7659;SDS011;3872;47.902;8.162;2022-07-17T05:13:38;6.87;;;3.03;;
7659;SDS011;3872;47.902;8.162;2022-07-17T05:16:04;6.23;;;3.30;;
7659;SDS011;3872;47.902;8.162;2022-07-17T05:18:31;14.13;;;3.10;;
7659;SDS011;3872;47.902;8.162;2022-07-17T05:20:59;5.10;;;2.83;;
7659;SDS011;3872;47.902;8.162;2022-07-17T05:23:26;5.60;;;2.80;;
7659;SDS011;3872;47.902;8.162;2022-07-17T05:25:52;5.50;;;3.23;;
7659;SDS011;3872;47.902;8.162;2022-07-17T05:28:19;5.80;;;2.87;;
7659;SDS011;3872;47.902;8.162;2022-07-17T05:30:45;5.97;;;3.00;;
7659;SDS011;3872;47.902;8.162;2022-07-17T05:33:12;6.23;;;2.60;;
7659;SDS011;3872;47.902;8.162;2022-07-17T05:35:38;5.47;;;2.80;;
7659;SDS011;3872;47.902;8.162;2022-07-17T05:38:06;7.03;;;3.03;;
7659;SDS011;3872;47.902;8.162;2022-07-17T05:40:33;4.90;;;2.40;;
7659;SDS011;3872;47.902;8.162;2022-07-17T05:42:59;6.20;;;2.70;;
7659;SDS011;3872;47.902;8.162;2022-07-17T05:45:26;5.57;;;2.53;;
7659;SDS011;3872;47.902;8.162;2022-07-17T05:47:52;5.43;;;2.63;;
7659;SDS011;3872;47.902;8.162;2022-07-17T05:50:19;6.40;;;3.03;;
7659;SDS011;3872;47.902;8.162;2022-07-17T05:52:45;7.73;;;2.80;;
7659;SDS011;3872;47.902;8.162;2022-07-17T05:55:13;6.30;;;2.37;;
7659;SDS011;3872;47.902;8.162;2022-07-17T05:57:40;4.80;;;2.50;;
7659;SDS011;3872;47.902;8.162;2022-07-17T06:00:07;6.03;;;2.80;;
7659;SDS011;3872;47.902;8.162;2022-07-17T06:02:40;5.47;;;2.07;;
7659;SDS011;3872;47.902;8.162;2022-07-17T06:05:07;7.23;;;2.30;;
7659;SDS011;3872;47.902;8.162;2022-07-17T06:07:34;6.03;;;2.80;;
7659;SDS011;3872;47.902;8.162;2022-07-17T06:10:00;5.67;;;2.40;;
7659;SDS011;3872;47.902;8.162;2022-07-17T06:12:28;5.23;;;2.30;;
7659;SDS011;3872;47.902;8.162;2022-07-17T06:14:55;6.57;;;2.20;;
7659;SDS011;3872;47.902;8.162;2022-07-17T06:17:22;5.80;;;2.47;;
7659;SDS011;3872;47.902;8.162;2022-07-17T06:19:48;8.40;;;2.40;;
7659;SDS011;3872;47.902;8.162;2022-07-17T06:22:17;5.73;;;3.37;;
7659;SDS011;3872;47.902;8.162;2022-07-17T06:24:43;7.33;;;2.90;;
7659;SDS011;3872;47.902;8.162;2022-07-17T06:27:10;6.00;;;2.40;;
7659;SDS011;3872;47.902;8.162;2022-07-17T06:29:38;4.90;;;2.47;;
7659;SDS011;3872;47.902;8.162;2022-07-17T06:32:05;5.50;;;2.50;;
7659;SDS011;3872;47.902;8.162;2022-07-17T06:34:32;5.63;;;2.60;;
7659;SDS011;3872;47.902;8.162;2022-07-17T06:36:58;4.40;;;2.10;;
7659;SDS011;3872;47.902;8.162;2022-07-17T06:39:25;4.70;;;2.30;;
7659;SDS011;3872;47.902;8.162;2022-07-17T06:41:51;11.80;;;2.43;;
7659;SDS011;3872;47.902;8.162;2022-07-17T06:44:19;11.63;;;3.60;;
7659;SDS011;3872;47.902;8.162;2022-07-17T06:46:47;16.70;;;2.80;;
7659;SDS011;3872;47.902;8.162;2022-07-17T06:49:13;7.33;;;2.43;;
7659;SDS011;3872;47.902;8.162;2022-07-17T06:51:40;7.23;;;2.70;;
7659;SDS011;3872;47.902;8.162;2022-07-17T06:54:06;13.67;;;2.90;;
7659;SDS011;3872;47.902;8.162;2022-07-17T06:56:35;5.20;;;2.00;;
7659;SDS011;3872;47.902;8.162;2022-07-17T06:59:01;8.00;;;2.63;;
7659;SDS011;3872;47.902;8.162;2022-07-17T07:01:28;6.17;;;3.00;;
7659;SDS011;3872;47.902;8.162;2022-07-17T07:03:56;7.27;;;2.60;;
7659;SDS011;3872;47.902;8.162;2022-07-17T07:06:22;6.57;;;2.50;;
7659;SDS011;3872;47.902;8.162;2022-07-17T07:08:49;9.20;;;2.37;;
7659;SDS011;3872;47.902;8.162;2022-07-17T07:11:15;7.23;;;2.57;;
7659;SDS011;3872;47.902;8.162;2022-07-17T07:13:42;8.50;;;2.50;;
7659;SDS011;3872;47.902;8.162;2022-07-17T07:16:09;19.87;;;2.87;;
7659;SDS011;3872;47.902;8.162;2022-07-17T07:18:36;6.13;;;2.40;;
7659;SDS011;3872;47.902;8.162;2022-07-17T07:21:04;10.30;;;2.90;;
7659;SDS011;3872;47.902;8.162;2022-07-17T07:23:30;8.33;;;3.00;;
7659;SDS011;3872;47.902;8.162;2022-07-17T07:25:57;5.60;;;2.20;;
7659;SDS011;3872;47.902;8.162;2022-07-17T07:28:24;5.60;;;2.30;;
7659;SDS011;3872;47.902;8.162;2022-07-17T07:30:50;4.70;;;2.17;;
7659;SDS011;3872;47.902;8.162;2022-07-17T07:33:17;5.40;;;2.23;;
7659;SDS011;3872;47.902;8.162;2022-07-17T07:35:43;9.43;;;2.10;;
7659;SDS011;3872;47.902;8.162;2022-07-17T07:38:11;7.73;;;2.23;;
7659;SDS011;3872;47.902;8.162;2022-07-17T07:40:38;7.10;;;2.47;;
7659;SDS011;3872;47.902;8.162;2022-07-17T07:43:05;4.70;;;1.90;;
7659;SDS011;3872;47.902;8.162;2022-07-17T07:45:31;6.53;;;1.80;;
7659;SDS011;3872;47.902;8.162;2022-07-17T07:47:58;7.63;;;1.90;;
7659;SDS011;3872;47.902;8.162;2022-07-17T07:50:25;4.70;;;1.83;;
7659;SDS011;3872;47.902;8.162;2022-07-17T07:52:52;9.93;;;2.43;;
7659;SDS011;3872;47.902;8.162;2022-07-17T07:55:20;5.00;;;1.90;;
7659;SDS011;3872;47.902;8.162;2022-07-17T07:57:47;6.03;;;1.63;;
7659;SDS011;3872;47.902;8.162;2022-07-17T08:00:14;5.60;;;1.83;;
7659;SDS011;3872;47.902;8.162;2022-07-17T08:02:41;6.00;;;2.17;;
7659;SDS011;3872;47.902;8.162;2022-07-17T08:05:07;6.30;;;1.90;;
7659;SDS011;3872;47.902;8.162;2022-07-17T08:07:34;4.83;;;1.90;;
7659;SDS011;3872;47.902;8.162;2022-07-17T08:10:02;5.60;;;2.13;;
7659;SDS011;3872;47.902;8.162;2022-07-17T08:12:31;8.57;;;1.90;;
7659;SDS011;3872;47.902;8.162;2022-07-17T08:14:58;7.80;;;2.40;;
7659;SDS011;3872;47.902;8.162;2022-07-17T08:17:24;7.80;;;1.73;;
7659;SDS011;3872;47.902;8.162;2022-07-17T08:19:51;5.20;;;2.50;;
7659;SDS011;3872;47.902;8.162;2022-07-17T08:22:17;4.70;;;1.70;;
7659;SDS011;3872;47.902;8.162;2022-07-17T08:24:44;6.83;;;2.10;;
7659;SDS011;3872;47.902;8.162;2022-07-17T08:27:11;8.17;;;2.10;;
7659;SDS011;3872;47.902;8.162;2022-07-17T08:29:39;4.80;;;1.70;;
7659;SDS011;3872;47.902;8.162;2022-07-17T08:32:05;6.90;;;2.20;;
7659;SDS011;3872;47.902;8.162;2022-07-17T08:34:32;12.03;;;2.07;;
7659;SDS011;3872;47.902;8.162;2022-07-17T08:36:59;5.87;;;1.90;;
7659;SDS011;3872;47.902;8.162;2022-07-17T08:39:25;5.10;;;2.13;;
7659;SDS011;3872;47.902;8.162;2022-07-17T08:41:52;4.87;;;2.03;;
7659;SDS011;3872;47.902;8.162;2022-07-17T08:44:19;5.97;;;2.10;;
7659;SDS011;3872;47.902;8.162;2022-07-17T08:46:47;8.10;;;1.90;;
7659;SDS011;3872;47.902;8.162;2022-07-17T08:49:14;5.00;;;1.60;;
7659;SDS011;3872;47.902;8.162;2022-07-17T08:51:46;6.17;;;2.10;;
7659;SDS011;3872;47.902;8.162;2022-07-17T08:54:13;6.20;;;2.07;;
7659;SDS011;3872;47.902;8.162;2022-07-17T08:56:40;5.37;;;1.97;;
7659;SDS011;3872;47.902;8.162;2022-07-17T08:59:06;7.73;;;2.17;;
7659;SDS011;3872;47.902;8.162;2022-07-17T09:01:33;4.77;;;1.87;;
7659;SDS011;3872;47.902;8.162;2022-07-17T09:04:02;4.73;;;1.67;;
7659;SDS011;3872;47.902;8.162;2022-07-17T09:06:32;4.60;;;1.90;;
7659;SDS011;3872;47.902;8.162;2022-07-17T09:09:00;23.47;;;2.10;;
7659;SDS011;3872;47.902;8.162;2022-07-17T09:11:28;5.47;;;2.07;;
7659;SDS011;3872;47.902;8.162;2022-07-17T09:13:55;6.50;;;1.70;;
7659;SDS011;3872;47.902;8.162;2022-07-17T09:16:22;5.70;;;2.00;;
7659;SDS011;3872;47.902;8.162;2022-07-17T09:18:50;5.20;;;1.70;;
7659;SDS011;3872;47.902;8.162;2022-07-17T09:21:20;4.80;;;1.60;;
7659;SDS011;3872;47.902;8.162;2022-07-17T09:23:58;4.73;;;1.60;;
7659;SDS011;3872;47.902;8.162;2022-07-17T09:26:26;5.70;;;2.00;;
7659;SDS011;3872;47.902;8.162;2022-07-17T09:28:53;4.90;;;2.03;;
7659;SDS011;3872;47.902;8.162;2022-07-17T09:31:24;5.20;;;1.90;;
7659;SDS011;3872;47.902;8.162;2022-07-17T09:33:51;8.23;;;2.27;;
7659;SDS011;3872;47.902;8.162;2022-07-17T09:36:19;5.77;;;1.73;;
7659;SDS011;3872;47.902;8.162;2022-07-17T09:38:46;5.47;;;1.97;;
7659;SDS011;3872;47.902;8.162;2022-07-17T09:41:15;4.60;;;1.73;;
7659;SDS011;3872;47.902;8.162;2022-07-17T09:43:46;5.63;;;1.50;;
7659;SDS011;3872;47.902;8.162;2022-07-17T09:46:16;5.60;;;1.70;;
7659;SDS011;3872;47.902;8.162;2022-07-17T09:48:46;8.63;;;1.77;;
7659;SDS011;3872;47.902;8.162;2022-07-17T09:51:15;4.77;;;1.80;;
7659;SDS011;3872;47.902;8.162;2022-07-17T09:53:44;13.83;;;1.83;;
7659;SDS011;3872;47.902;8.162;2022-07-17T09:56:13;5.57;;;2.00;;
7659;SDS011;3872;47.902;8.162;2022-07-17T09:58:41;7.07;;;1.90;;
7659;SDS011;3872;47.902;8.162;2022-07-17T10:01:11;5.30;;;2.10;;
7659;SDS011;3872;47.902;8.162;2022-07-17T10:03:39;5.93;;;1.93;;
7659;SDS011;3872;47.902;8.162;2022-07-17T10:06:06;4.43;;;1.47;;
7659;SDS011;3872;47.902;8.162;2022-07-17T10:08:33;4.97;;;1.50;;
7659;SDS011;3872;47.902;8.162;2022-07-17T10:11:02;4.23;;;1.43;;
7659;SDS011;3872;47.902;8.162;2022-07-17T10:13:29;4.90;;;2.10;;
7659;SDS011;3872;47.902;8.162;2022-07-17T10:15:57;6.40;;;1.97;;
7659;SDS011;3872;47.902;8.162;2022-07-17T10:18:33;5.90;;;1.80;;
7659;SDS011;3872;47.902;8.162;2022-07-17T10:21:05;4.80;;;1.60;;
7659;SDS011;3872;47.902;8.162;2022-07-17T10:23:33;6.97;;;2.03;;
7659;SDS011;3872;47.902;8.162;2022-07-17T10:26:00;6.47;;;2.00;;
7659;SDS011;3872;47.902;8.162;2022-07-17T10:28:38;4.77;;;1.60;;
7659;SDS011;3872;47.902;8.162;2022-07-17T10:31:05;5.43;;;1.93;;
7659;SDS011;3872;47.902;8.162;2022-07-17T10:33:32;5.10;;;1.50;;
7659;SDS011;3872;47.902;8.162;2022-07-17T10:35:58;4.87;;;1.70;;
7659;SDS011;3872;47.902;8.162;2022-07-17T10:38:26;4.37;;;1.40;;
7659;SDS011;3872;47.902;8.162;2022-07-17T10:40:58;5.60;;;2.10;;
7659;SDS011;3872;47.902;8.162;2022-07-17T10:43:26;5.80;;;1.70;;
7659;SDS011;3872;47.902;8.162;2022-07-17T10:45:54;10.57;;;4.20;;
7659;SDS011;3872;47.902;8.162;2022-07-17T10:48:21;5.83;;;2.23;;
7659;SDS011;3872;47.902;8.162;2022-07-17T10:50:50;6.20;;;2.27;;
7659;SDS011;3872;47.902;8.162;2022-07-17T10:53:18;6.90;;;1.70;;
7659;SDS011;3872;47.902;8.162;2022-07-17T10:55:48;9.70;;;2.90;;
7659;SDS011;3872;47.902;8.162;2022-07-17T10:58:20;5.43;;;1.67;;
7659;SDS011;3872;47.902;8.162;2022-07-17T11:01:00;5.20;;;2.10;;
7659;SDS011;3872;47.902;8.162;2022-07-17T11:03:29;4.83;;;1.80;;
7659;SDS011;3872;47.902;8.162;2022-07-17T11:06:05;5.90;;;1.83;;
7659;SDS011;3872;47.902;8.162;2022-07-17T11:08:34;6.93;;;2.17;;
7659;SDS011;3872;47.902;8.162;2022-07-17T11:11:01;5.20;;;1.73;;
7659;SDS011;3872;47.902;8.162;2022-07-17T11:13:28;4.40;;;1.80;;
7659;SDS011;3872;47.902;8.162;2022-07-17T11:15:54;6.03;;;1.87;;
7659;SDS011;3872;47.902;8.162;2022-07-17T11:18:22;6.10;;;1.70;;
7659;SDS011;3872;47.902;8.162;2022-07-17T11:20:50;4.70;;;1.67;;
7659;SDS011;3872;47.902;8.162;2022-07-17T11:23:18;4.60;;;1.53;;
7659;SDS011;3872;47.902;8.162;2022-07-17T11:28:34;5.50;;;1.53;;
7659;SDS011;3872;47.902;8.162;2022-07-17T11:31:03;4.80;;;1.57;;
7659;SDS011;3872;47.902;8.162;2022-07-17T11:33:32;6.00;;;2.03;;
7659;SDS011;3872;47.902;8.162;2022-07-17T11:35:59;5.30;;;1.77;;
7659;SDS011;3872;47.902;8.162;2022-07-17T11:38:26;4.50;;;1.63;;
7659;SDS011;3872;47.902;8.162;2022-07-17T11:40:55;9.07;;;1.83;;
7659;SDS011;3872;47.902;8.162;2022-07-17T11:43:22;5.03;;;1.63;;
7659;SDS011;3872;47.902;8.162;2022-07-17T11:45:49;9.00;;;1.70;;
7659;SDS011;3872;47.902;8.162;2022-07-17T11:48:15;4.90;;;1.47;;
7659;SDS011;3872;47.902;8.162;2022-07-17T11:50:53;6.63;;;1.80;;
7659;SDS011;3872;47.902;8.162;2022-07-17T11:53:29;4.37;;;1.60;;
7659;SDS011;3872;47.902;8.162;2022-07-17T11:55:58;5.53;;;2.00;;
7659;SDS011;3872;47.902;8.162;2022-07-17T11:58:25;5.53;;;1.83;;
7659;SDS011;3872;47.902;8.162;2022-07-17T12:00:59;4.90;;;1.70;;
7659;SDS011;3872;47.902;8.162;2022-07-17T12:03:27;5.03;;;2.30;;
7659;SDS011;3872;47.902;8.162;2022-07-17T12:05:55;4.53;;;1.77;;
7659;SDS011;3872;47.902;8.162;2022-07-17T12:08:21;5.10;;;1.90;;
7659;SDS011;3872;47.902;8.162;2022-07-17T12:10:58;11.73;;;2.10;;
7659;SDS011;3872;47.902;8.162;2022-07-17T12:13:32;4.53;;;1.70;;
7659;SDS011;3872;47.902;8.162;2022-07-17T12:16:17;6.43;;;1.93;;
7659;SDS011;3872;47.902;8.162;2022-07-17T12:18:54;7.23;;;1.63;;
7659;SDS011;3872;47.902;8.162;2022-07-17T12:21:23;6.00;;;1.90;;
7659;SDS011;3872;47.902;8.162;2022-07-17T12:23:55;7.70;;;1.97;;
7659;SDS011;3872;47.902;8.162;2022-07-17T12:26:23;4.83;;;2.13;;
7659;SDS011;3872;47.902;8.162;2022-07-17T12:28:50;4.63;;;1.70;;
7659;SDS011;3872;47.902;8.162;2022-07-17T12:31:16;6.60;;;1.93;;
7659;SDS011;3872;47.902;8.162;2022-07-17T12:33:44;4.67;;;1.80;;
7659;SDS011;3872;47.902;8.162;2022-07-17T12:36:11;5.47;;;1.87;;
7659;SDS011;3872;47.902;8.162;2022-07-17T12:38:40;5.33;;;1.87;;
7659;SDS011;3872;47.902;8.162;2022-07-17T12:41:06;5.00;;;1.70;;
7659;SDS011;3872;47.902;8.162;2022-07-17T12:43:33;4.80;;;1.90;;
7659;SDS011;3872;47.902;8.162;2022-07-17T12:45:59;5.97;;;2.00;;
7659;SDS011;3872;47.902;8.162;2022-07-17T12:48:26;4.60;;;1.70;;
7659;SDS011;3872;47.902;8.162;2022-07-17T12:50:52;5.20;;;2.00;;
7659;SDS011;3872;47.902;8.162;2022-07-17T12:53:19;5.20;;;1.80;;
7659;SDS011;3872;47.902;8.162;2022-07-17T12:55:47;6.15;;;1.80;;
7659;SDS011;3872;47.902;8.162;2022-07-17T12:58:13;7.00;;;1.90;;
7659;SDS011;3872;47.902;8.162;2022-07-17T13:00:40;6.60;;;2.38;;
7659;SDS011;3872;47.902;8.162;2022-07-17T13:03:07;5.38;;;1.73;;
7659;SDS011;3872;47.902;8.162;2022-07-17T13:05:34;4.68;;;1.95;;
7659;SDS011;3872;47.902;8.162;2022-07-17T13:08:00;6.38;;;1.67;;
7659;SDS011;3872;47.902;8.162;2022-07-17T13:10:27;4.30;;;1.70;;
7659;SDS011;3872;47.902;8.162;2022-07-17T13:12:55;4.60;;;1.55;;
7659;SDS011;3872;47.902;8.162;2022-07-17T13:15:22;5.22;;;2.17;;
7659;SDS011;3872;47.902;8.162;2022-07-17T13:17:49;4.45;;;1.33;;
7659;SDS011;3872;47.902;8.162;2022-07-17T13:20:15;4.85;;;2.28;;
7659;SDS011;3872;47.902;8.162;2022-07-17T13:22:42;4.50;;;1.73;;
7659;SDS011;3872;47.902;8.162;2022-07-17T13:25:08;5.63;;;1.80;;
7659;SDS011;3872;47.902;8.162;2022-07-17T13:27:35;5.50;;;1.80;;
7659;SDS011;3872;47.902;8.162;2022-07-17T13:30:04;5.70;;;1.90;;
7659;SDS011;3872;47.902;8.162;2022-07-17T13:32:31;4.82;;;2.03;;
7659;SDS011;3872;47.902;8.162;2022-07-17T13:34:58;5.13;;;1.95;;
7659;SDS011;3872;47.902;8.162;2022-07-17T13:37:25;7.05;;;1.88;;
7659;SDS011;3872;47.902;8.162;2022-07-17T13:39:52;5.20;;;2.22;;
7659;SDS011;3872;47.902;8.162;2022-07-17T13:42:18;5.15;;;1.80;;
7659;SDS011;3872;47.902;8.162;2022-07-17T13:44:45;5.18;;;2.22;;
7659;SDS011;3872;47.902;8.162;2022-07-17T13:47:13;4.47;;;1.40;;
7659;SDS011;3872;47.902;8.162;2022-07-17T13:49:40;14.13;;;2.47;;
7659;SDS011;3872;47.902;8.162;2022-07-17T13:52:07;4.78;;;2.05;;
7659;SDS011;3872;47.902;8.162;2022-07-17T13:54:33;4.80;;;2.10;;
7659;SDS011;3872;47.902;8.162;2022-07-17T13:57:00;6.82;;;2.90;;
7659;SDS011;3872;47.902;8.162;2022-07-17T13:59:26;8.05;;;3.63;;
7659;SDS011;3872;47.902;8.162;2022-07-17T14:01:53;4.90;;;1.83;;
7659;SDS011;3872;47.902;8.162;2022-07-17T14:04:21;5.43;;;1.80;;
7659;SDS011;3872;47.902;8.162;2022-07-17T14:06:48;6.57;;;1.60;;
7659;SDS011;3872;47.902;8.162;2022-07-17T14:09:14;4.70;;;1.80;;
7659;SDS011;3872;47.902;8.162;2022-07-17T14:11:41;8.35;;;1.70;;
7659;SDS011;3872;47.902;8.162;2022-07-17T14:14:08;5.40;;;2.10;;
7659;SDS011;3872;47.902;8.162;2022-07-17T14:16:34;5.75;;;1.45;;
7659;SDS011;3872;47.902;8.162;2022-07-17T14:19:01;4.63;;;1.77;;
7659;SDS011;3872;47.902;8.162;2022-07-17T14:21:30;6.45;;;1.92;;
7659;SDS011;3872;47.902;8.162;2022-07-17T14:23:57;4.30;;;1.67;;
7659;SDS011;3872;47.902;8.162;2022-07-17T14:26:25;5.95;;;1.80;;
7659;SDS011;3872;47.902;8.162;2022-07-17T14:28:51;4.40;;;1.80;;
7659;SDS011;3872;47.902;8.162;2022-07-17T14:31:18;5.47;;;1.75;;
7659;SDS011;3872;47.902;8.162;2022-07-17T14:33:45;5.05;;;1.98;;
7659;SDS011;3872;47.902;8.162;2022-07-17T14:36:12;6.50;;;1.98;;
7659;SDS011;3872;47.902;8.162;2022-07-17T14:38:40;6.47;;;1.63;;
7659;SDS011;3872;47.902;8.162;2022-07-17T14:41:07;5.05;;;1.73;;
7659;SDS011;3872;47.902;8.162;2022-07-17T14:43:34;12.27;;;2.30;;
7659;SDS011;3872;47.902;8.162;2022-07-17T14:46:01;5.00;;;1.77;;
7659;SDS011;3872;47.902;8.162;2022-07-17T14:48:27;4.60;;;1.60;;
7659;SDS011;3872;47.902;8.162;2022-07-17T14:50:54;4.35;;;1.52;;
7659;SDS011;3872;47.902;8.162;2022-07-17T14:53:20;4.53;;;1.67;;
7659;SDS011;3872;47.902;8.162;2022-07-17T14:55:49;6.53;;;1.92;;
7659;SDS011;3872;47.902;8.162;2022-07-17T14:58:15;4.50;;;1.67;;
7659;SDS011;3872;47.902;8.162;2022-07-17T15:00:42;4.75;;;1.92;;
7659;SDS011;3872;47.902;8.162;2022-07-17T15:03:09;4.80;;;2.08;;
7659;SDS011;3872;47.902;8.162;2022-07-17T15:05:35;4.30;;;1.73;;
7659;SDS011;3872;47.902;8.162;2022-07-17T15:08:02;6.63;;;2.63;;
7659;SDS011;3872;47.902;8.162;2022-07-17T15:10:29;5.30;;;2.10;;
7659;SDS011;3872;47.902;8.162;2022-07-17T15:12:57;5.05;;;2.10;;
7659;SDS011;3872;47.902;8.162;2022-07-17T15:15:24;5.53;;;2.20;;
7659;SDS011;3872;47.902;8.162;2022-07-17T15:17:51;5.60;;;2.10;;
7659;SDS011;3872;47.902;8.162;2022-07-17T15:20:18;4.70;;;2.03;;